Terminal Aerodrome Forecast
Issued by NWS

Home | Current Version | Previous Version | Text Only | Print | Product List | Glossary On
Versions: 1 2 3 4 5 6 7 8 9 10 11 12 13 14 15 16 17 18 19 20 21 22 23 24 25 26 27 28 29 30 31 32 33 34 35 36 37 38 39 40 41 42 43 44
000
FTUS41 KGYX 130159 AAB
TAFMHT
TAF AMD
KMHT 130159Z 1302/1324 31008KT P6SM SCT025 BKN050 OVC080
      TEMPO 1303/1306 SCT050 OVC080
     FM130600 26005KT P6SM BKN050 BKN080
     FM131500 28016G26KT P6SM SCT045 SCT100=

USA.gov is the U.S. government's official web portal to all federal, state and local government web resources and services.